Bookmark and Share
Track history (hours):
 

Maersk Danang

Last reported at 2014-Apr-16 18:00 UTC. Time now 2014-Apr-18 20:57 UTC.
Position N 36°06' W 074°12'.

Length 294 m; draft 11.3 m.

Type: Ship. MMSI: 636091595.

Wind from 010 at 22 knots

Waves 2.0 meters (7 feet), 4 second period

Barometer 1026.0 mb
Air temperature 5.0 ° C
Visibility: greater than 10.8 NM
Dewpoint 2.5 ° C
Water temperature 8.0 ° C

NotesDate/timePositionNaut miles runAvg speedWind from/ knotsBaromVisibWave heightAir tempDewpointWater temp
2014-Apr-16 18:00N 36°06' W 074°12'20236.4 010 / 221026.010.8 2.0 5.0 2.5 8.0
2014-Apr-16 12:26N 39°27' W 073°55'1314.5
2014-Apr-16 11:33N 39°40' W 073°53'1514.6
2014-Apr-16 10:34N 39°55' W 073°51'3310.8
2014-Apr-16 07:33N 40°27' W 073°50'1110.9
2014-Apr-16 06:32N 40°34' W 074°02'7 7.5
2014-Apr-16 05:33N 40°39' W 074°09'1 1.1
2014-Apr-16 04:32N 40°40' W 074°09'0 0.0
2014-Apr-16 03:31N 40°40' W 074°09'0 0.0
2014-Apr-16 02:31N 40°40' W 074°09'0 0.0
2014-Apr-16 01:28N 40°40' W 074°09'0 0.0
2014-Apr-16 00:33N 40°40' W 074°09'0 0.0
2014-Apr-15 23:33N 40°40' W 074°09'0 0.0
2014-Apr-15 22:32N 40°40' W 074°09'0 0.0
2014-Apr-15 21:32N 40°40' W 074°09'0 0.0
2014-Apr-15 20:31N 40°40' W 074°09'0 0.0
2014-Apr-15 19:31N 40°40' W 074°09'0 0.0
2014-Apr-15 18:31N 40°40' W 074°09'0 0.0
2014-Apr-15 17:33N 40°40' W 074°09'0 0.0
2014-Apr-15 16:33N 40°40' W 074°09'2 1.7
2014-Apr-15 15:33N 40°39' W 074°07'5 5.0
2014-Apr-15 14:33N 40°35' W 074°02'11 5.5
2014-Apr-15 12:33N 40°28' W 073°51'18 8.9
2014-Apr-15 10:34N 40°28' W 073°28'3517.3
2014-Apr-15 08:32N 40°31' W 072°42'1717.8
2014-Apr-15 07:34N 40°31' W 072°19'1817.8
2014-Apr-15 06:34N 40°31' W 071°56'3358.2
2014-Apr-15 06:00N 40°30' W 071°12'1535.3 160 / 221014.0 5.4 1.011.0 9.0 5.0
2014-Apr-15 05:33N 40°32' W 071°32'3617.9
2014-Apr-15 03:34N 40°32' W 070°45'1917.8
2014-Apr-15 02:31N 40°32' W 070°20'1717.7
2014-Apr-15 01:33N 40°32' W 069°58'1717.6
2014-Apr-15 00:34N 40°32' W 069°35'1817.7
2014-Apr-14 23:34N 40°32' W 069°12'31718.1
2014-Apr-14 06:00N 40°00' W 062°18'19816.5 170 / 181025.010.8 1.517.015.320.0
2014-Apr-13 18:00N 40°00' W 058°00'20717.2 050 / 141025.010.8 0.515.013.217.0
2014-Apr-13 06:00N 40°00' W 053°30'41417.3 220 / 241024.010.8 2.016.014.316.0
2014-Apr-12 06:00N 39°48' W 044°30'64216.6 350 / 121026.010.8 1.012.0 7.916.0
2014-Apr-10 15:13N 38°18' W 030°52'1317.3
2014-Apr-10 14:28N 38°15' W 030°36'1517.1
2014-Apr-10 13:33N 38°12' W 030°16'1717.0
2014-Apr-10 12:33N 38°08' W 029°55'1817.5
2014-Apr-10 11:33N 38°04' W 029°34'1717.2
2014-Apr-10 10:33N 37°60' W 029°12'1717.4
2014-Apr-10 09:33N 37°56' W 028°51'1717.0
2014-Apr-10 08:33N 37°51' W 028°30'1716.9
2014-Apr-10 07:33N 37°47' W 028°09'1716.8
2014-Apr-10 06:33N 37°43' W 027°49'1716.9
2014-Apr-10 05:33N 37°39' W 027°28'1817.2
2014-Apr-10 04:31N 37°34' W 027°07'1616.9
2014-Apr-10 03:33N 37°30' W 026°47'1616.4
2014-Apr-10 02:33N 37°25' W 026°27'1716.7
2014-Apr-10 01:34N 37°21' W 026°07'1717.2
2014-Apr-10 00:33N 37°17' W 025°46'1831.4
2014-Apr-10 00:00N 37°12' W 025°24'1 1.8 090 / 151019.010.8
2014-Apr-09 23:33N 37°12' W 025°25'1716.9
2014-Apr-09 22:33N 37°09' W 025°04'1717.1
2014-Apr-09 21:33N 37°06' W 024°43'1717.1
2014-Apr-09 20:33N 37°05' W 024°22'1717.1
2014-Apr-09 19:33N 37°04' W 024°00'1717.2
2014-Apr-09 18:33N 37°02' W 023°39'31517.0
2014-Apr-09 00:00N 36°36' W 017°06'20817.4 030 / 121016.010.8 0.516.014.316.0
2014-Apr-08 12:00N 36°18' W 012°48'16916.2 040 / 231016.010.8 2.016.014.316.0
2014-Apr-08 01:33N 36°08' W 009°19'1916.5
2014-Apr-08 00:23N 36°06' W 008°55'16316.6
2014-Apr-07 14:33N 35°59' W 005°33'1212.1
2014-Apr-07 13:34N 36°08' W 005°25'1 1.3
2014-Apr-07 12:31N 36°09' W 005°26'0 0.0
2014-Apr-07 11:31N 36°09' W 005°26'0 0.0
2014-Apr-06 21:33N 36°09' W 005°26'0 0.0
2014-Apr-06 20:33N 36°09' W 005°26'0 0.0
2014-Apr-06 19:33N 36°09' W 005°26'0 0.0
2014-Apr-06 18:33N 36°09' W 005°26'  

Dump ship's entire track history

sailing weather and tide predictions

Maersk Danang — A8PS5 — position and weather